sensor_id;sensor_type;location;lat;lon;timestamp;temperature;humidity
51825;DHT22;37879;52.986;6.282;2024-01-16T00:00:49;-1.20;99.90
51825;DHT22;37879;52.986;6.282;2024-01-16T00:03:15;-0.50;99.90
51825;DHT22;37879;52.986;6.282;2024-01-16T00:05:40;-0.80;99.90
51825;DHT22;37879;52.986;6.282;2024-01-16T00:08:06;0.30;99.90
51825;DHT22;37879;52.986;6.282;2024-01-16T00:10:32;-0.70;99.90
51825;DHT22;37879;52.986;6.282;2024-01-16T00:12:57;-0.90;99.90
51825;DHT22;37879;52.986;6.282;2024-01-16T00:15:23;-1.10;99.90
51825;DHT22;37879;52.986;6.282;2024-01-16T00:25:15;-1.20;99.90
51825;DHT22;37879;52.986;6.282;2024-01-16T00:27:41;-1.00;99.90
51825;DHT22;37879;52.986;6.282;2024-01-16T00:30:08;-1.10;99.90
51825;DHT22;37879;52.986;6.282;2024-01-16T00:32:34;-1.10;99.90
51825;DHT22;37879;52.986;6.282;2024-01-16T00:35:00;-1.30;99.90
51825;DHT22;37879;52.986;6.282;2024-01-16T00:37:25;-1.10;99.90
51825;DHT22;37879;52.986;6.282;2024-01-16T00:39:51;-1.00;99.90
51825;DHT22;37879;52.986;6.282;2024-01-16T00:42:17;-1.00;99.90
51825;DHT22;37879;52.986;6.282;2024-01-16T00:44:42;-1.00;99.90
51825;DHT22;37879;52.986;6.282;2024-01-16T00:47:08;-0.80;99.90
51825;DHT22;37879;52.986;6.282;2024-01-16T00:49:35;-1.00;99.90
51825;DHT22;37879;52.986;6.282;2024-01-16T00:52:01;-1.00;99.90
51825;DHT22;37879;52.986;6.282;2024-01-16T00:54:27;-1.00;99.90
51825;DHT22;37879;52.986;6.282;2024-01-16T00:56:53;-0.30;99.90
51825;DHT22;37879;52.986;6.282;2024-01-16T00:59:25;-0.90;99.90
51825;DHT22;37879;52.986;6.282;2024-01-16T01:01:51;-0.80;99.90
51825;DHT22;37879;52.986;6.282;2024-01-16T01:04:17;-0.70;99.90
51825;DHT22;37879;52.986;6.282;2024-01-16T01:06:43;-0.70;99.90
51825;DHT22;37879;52.986;6.282;2024-01-16T01:09:08;-0.80;99.90
51825;DHT22;37879;52.986;6.282;2024-01-16T01:11:38;-0.70;99.90
51825;DHT22;37879;52.986;6.282;2024-01-16T01:14:04;-0.50;99.90
51825;DHT22;37879;52.986;6.282;2024-01-16T01:16:29;-0.90;99.90
51825;DHT22;37879;52.986;6.282;2024-01-16T01:18:55;-1.00;99.90
51825;DHT22;37879;52.986;6.282;2024-01-16T01:21:21;-0.90;99.90
51825;DHT22;37879;52.986;6.282;2024-01-16T01:23:46;-0.70;99.90
51825;DHT22;37879;52.986;6.282;2024-01-16T01:26:12;-0.40;99.90
51825;DHT22;37879;52.986;6.282;2024-01-16T01:28:43;-0.40;99.90
51825;DHT22;37879;52.986;6.282;2024-01-16T01:31:12;-1.10;99.90
51825;DHT22;37879;52.986;6.282;2024-01-16T01:33:41;-0.90;99.90
51825;DHT22;37879;52.986;6.282;2024-01-16T01:36:08;-1.10;99.90
51825;DHT22;37879;52.986;6.282;2024-01-16T01:38:33;0.20;99.90
51825;DHT22;37879;52.986;6.282;2024-01-16T01:40:59;-1.10;99.90
51825;DHT22;37879;52.986;6.282;2024-01-16T01:43:25;-1.10;99.90
51825;DHT22;37879;52.986;6.282;2024-01-16T01:46:14;-1.20;99.90
51825;DHT22;37879;52.986;6.282;2024-01-16T01:48:42;-1.20;99.90
51825;DHT22;37879;52.986;6.282;2024-01-16T01:51:08;-1.00;99.90
51825;DHT22;37879;52.986;6.282;2024-01-16T01:53:34;-0.90;99.90
51825;DHT22;37879;52.986;6.282;2024-01-16T01:56:04;-0.90;99.90
51825;DHT22;37879;52.986;6.282;2024-01-16T01:58:34;-1.10;99.90
51825;DHT22;37879;52.986;6.282;2024-01-16T02:01:01;0.00;99.90
51825;DHT22;37879;52.986;6.282;2024-01-16T02:03:29;-0.80;99.90
51825;DHT22;37879;52.986;6.282;2024-01-16T02:05:58;0.10;99.90
51825;DHT22;37879;52.986;6.282;2024-01-16T02:08:24;-0.20;99.90
51825;DHT22;37879;52.986;6.282;2024-01-16T02:10:50;-0.60;99.90
51825;DHT22;37879;52.986;6.282;2024-01-16T02:13:18;-0.70;99.90
51825;DHT22;37879;52.986;6.282;2024-01-16T02:15:46;-0.70;99.90
51825;DHT22;37879;52.986;6.282;2024-01-16T02:18:12;-0.70;99.90
51825;DHT22;37879;52.986;6.282;2024-01-16T02:20:37;-0.20;99.90
51825;DHT22;37879;52.986;6.282;2024-01-16T02:23:03;-0.40;99.90
51825;DHT22;37879;52.986;6.282;2024-01-16T02:25:30;-0.80;99.90
51825;DHT22;37879;52.986;6.282;2024-01-16T02:27:56;-0.80;99.90
51825;DHT22;37879;52.986;6.282;2024-01-16T02:30:21;-0.50;99.90
51825;DHT22;37879;52.986;6.282;2024-01-16T02:32:47;-0.80;99.90
51825;DHT22;37879;52.986;6.282;2024-01-16T02:35:13;-0.80;99.90
51825;DHT22;37879;52.986;6.282;2024-01-16T02:37:38;-1.20;99.90
51825;DHT22;37879;52.986;6.282;2024-01-16T02:40:05;-0.80;99.90
51825;DHT22;37879;52.986;6.282;2024-01-16T02:42:34;-0.80;99.90
51825;DHT22;37879;52.986;6.282;2024-01-16T02:45:01;-0.90;99.90
51825;DHT22;37879;52.986;6.282;2024-01-16T02:47:29;-0.70;99.90
51825;DHT22;37879;52.986;6.282;2024-01-16T02:49:55;-0.90;99.90
51825;DHT22;37879;52.986;6.282;2024-01-16T02:52:20;-1.00;99.90
51825;DHT22;37879;52.986;6.282;2024-01-16T02:54:46;-0.60;99.90
51825;DHT22;37879;52.986;6.282;2024-01-16T02:57:12;-1.00;99.90
51825;DHT22;37879;52.986;6.282;2024-01-16T02:59:38;-1.00;99.90
51825;DHT22;37879;52.986;6.282;2024-01-16T03:02:03;-0.60;99.90
51825;DHT22;37879;52.986;6.282;2024-01-16T03:04:29;-1.10;99.90
51825;DHT22;37879;52.986;6.282;2024-01-16T03:06:55;-1.00;99.90
51825;DHT22;37879;52.986;6.282;2024-01-16T03:09:21;-1.00;99.90
51825;DHT22;37879;52.986;6.282;2024-01-16T03:11:47;-1.00;99.90
51825;DHT22;37879;52.986;6.282;2024-01-16T03:14:13;-1.10;99.90
51825;DHT22;37879;52.986;6.282;2024-01-16T03:16:39;-0.90;99.90
51825;DHT22;37879;52.986;6.282;2024-01-16T03:19:05;-0.90;99.90
51825;DHT22;37879;52.986;6.282;2024-01-16T03:21:31;-1.30;99.90
51825;DHT22;37879;52.986;6.282;2024-01-16T03:23:57;-0.30;99.90
51825;DHT22;37879;52.986;6.282;2024-01-16T03:26:22;-1.40;99.90
51825;DHT22;37879;52.986;6.282;2024-01-16T03:28:48;-0.20;99.90
51825;DHT22;37879;52.986;6.282;2024-01-16T03:31:14;-1.30;99.90
51825;DHT22;37879;52.986;6.282;2024-01-16T03:33:40;-1.20;99.90
51825;DHT22;37879;52.986;6.282;2024-01-16T03:36:08;-1.30;99.90
51825;DHT22;37879;52.986;6.282;2024-01-16T03:38:39;-1.30;99.90
51825;DHT22;37879;52.986;6.282;2024-01-16T03:41:05;-1.20;99.90
51825;DHT22;37879;52.986;6.282;2024-01-16T03:43:36;-1.20;99.90
51825;DHT22;37879;52.986;6.282;2024-01-16T03:46:01;-1.20;99.90
51825;DHT22;37879;52.986;6.282;2024-01-16T03:48:27;-0.10;99.90
51825;DHT22;37879;52.986;6.282;2024-01-16T03:50:53;-1.10;99.90
51825;DHT22;37879;52.986;6.282;2024-01-16T03:53:20;-0.40;99.90
51825;DHT22;37879;52.986;6.282;2024-01-16T03:55:47;-1.10;99.90
51825;DHT22;37879;52.986;6.282;2024-01-16T03:58:13;-1.10;99.90
51825;DHT22;37879;52.986;6.282;2024-01-16T04:00:38;-1.10;99.90
51825;DHT22;37879;52.986;6.282;2024-01-16T04:03:04;-0.80;99.90
51825;DHT22;37879;52.986;6.282;2024-01-16T04:05:31;-1.00;99.90
51825;DHT22;37879;52.986;6.282;2024-01-16T04:07:59;-0.20;99.90
51825;DHT22;37879;52.986;6.282;2024-01-16T04:10:25;-0.70;99.90
51825;DHT22;37879;52.986;6.282;2024-01-16T04:12:51;-0.80;99.90
51825;DHT22;37879;52.986;6.282;2024-01-16T04:15:17;-0.40;99.90
51825;DHT22;37879;52.986;6.282;2024-01-16T04:17:43;-0.70;99.90
51825;DHT22;37879;52.986;6.282;2024-01-16T04:20:09;-0.70;99.90
51825;DHT22;37879;52.986;6.282;2024-01-16T04:22:35;-0.70;99.90
51825;DHT22;37879;52.986;6.282;2024-01-16T04:25:01;-0.70;99.90
51825;DHT22;37879;52.986;6.282;2024-01-16T04:27:26;-0.70;99.90
51825;DHT22;37879;52.986;6.282;2024-01-16T04:29:52;-0.50;99.90
51825;DHT22;37879;52.986;6.282;2024-01-16T04:32:19;0.20;99.90
51825;DHT22;37879;52.986;6.282;2024-01-16T04:34:44;-0.80;99.90
51825;DHT22;37879;52.986;6.282;2024-01-16T04:37:10;-0.80;99.90
51825;DHT22;37879;52.986;6.282;2024-01-16T04:39:36;-0.40;99.90
51825;DHT22;37879;52.986;6.282;2024-01-16T04:42:02;-0.80;99.90
51825;DHT22;37879;52.986;6.282;2024-01-16T04:44:28;-0.70;99.90
51825;DHT22;37879;52.986;6.282;2024-01-16T04:46:53;-0.50;99.90
51825;DHT22;37879;52.986;6.282;2024-01-16T04:49:19;0.00;99.90
51825;DHT22;37879;52.986;6.282;2024-01-16T04:51:45;0.20;99.90
51825;DHT22;37879;52.986;6.282;2024-01-16T04:54:11;-0.70;99.90
51825;DHT22;37879;52.986;6.282;2024-01-16T04:56:37;-0.80;99.90
51825;DHT22;37879;52.986;6.282;2024-01-16T04:59:03;-0.70;99.90
51825;DHT22;37879;52.986;6.282;2024-01-16T05:01:28;-0.70;99.90
51825;DHT22;37879;52.986;6.282;2024-01-16T05:03:54;-0.40;99.90
51825;DHT22;37879;52.986;6.282;2024-01-16T05:06:20;-0.60;99.90
51825;DHT22;37879;52.986;6.282;2024-01-16T05:08:46;-0.60;99.90
51825;DHT22;37879;52.986;6.282;2024-01-16T05:11:12;-0.20;99.90
51825;DHT22;37879;52.986;6.282;2024-01-16T05:13:38;0.00;99.90
51825;DHT22;37879;52.986;6.282;2024-01-16T05:16:05;-0.40;99.90
51825;DHT22;37879;52.986;6.282;2024-01-16T05:18:31;-0.50;99.90
51825;DHT22;37879;52.986;6.282;2024-01-16T05:20:58;-0.20;99.90
51825;DHT22;37879;52.986;6.282;2024-01-16T05:23:24;-0.60;99.90
51825;DHT22;37879;52.986;6.282;2024-01-16T05:25:49;-0.60;99.90
51825;DHT22;37879;52.986;6.282;2024-01-16T05:28:16;-0.30;99.90
51825;DHT22;37879;52.986;6.282;2024-01-16T05:30:41;-0.70;99.90
51825;DHT22;37879;52.986;6.282;2024-01-16T05:33:08;-0.60;99.90
51825;DHT22;37879;52.986;6.282;2024-01-16T05:35:34;0.80;99.90
51825;DHT22;37879;52.986;6.282;2024-01-16T05:37:59;0.10;99.90
51825;DHT22;37879;52.986;6.282;2024-01-16T05:40:26;-0.60;99.90
51825;DHT22;37879;52.986;6.282;2024-01-16T05:42:51;-0.70;99.90
51825;DHT22;37879;52.986;6.282;2024-01-16T05:45:18;0.00;99.90
51825;DHT22;37879;52.986;6.282;2024-01-16T05:47:44;-0.60;99.90
51825;DHT22;37879;52.986;6.282;2024-01-16T05:50:10;0.00;99.90
51825;DHT22;37879;52.986;6.282;2024-01-16T05:52:36;-0.60;99.90
51825;DHT22;37879;52.986;6.282;2024-01-16T05:55:02;-0.10;99.90
51825;DHT22;37879;52.986;6.282;2024-01-16T05:57:29;-0.40;99.90
51825;DHT22;37879;52.986;6.282;2024-01-16T05:59:57;-0.20;99.90
51825;DHT22;37879;52.986;6.282;2024-01-16T06:02:23;-0.30;99.90
51825;DHT22;37879;52.986;6.282;2024-01-16T06:04:48;-0.40;99.90
51825;DHT22;37879;52.986;6.282;2024-01-16T06:07:14;0.50;99.90
51825;DHT22;37879;52.986;6.282;2024-01-16T06:09:40;0.00;99.90
51825;DHT22;37879;52.986;6.282;2024-01-16T06:12:07;-0.30;99.90
51825;DHT22;37879;52.986;6.282;2024-01-16T06:14:33;-0.30;99.90
51825;DHT22;37879;52.986;6.282;2024-01-16T06:16:59;-0.30;99.90
51825;DHT22;37879;52.986;6.282;2024-01-16T06:19:25;-0.30;99.90
51825;DHT22;37879;52.986;6.282;2024-01-16T06:21:51;-0.30;99.90
51825;DHT22;37879;52.986;6.282;2024-01-16T06:24:16;-0.30;99.90
51825;DHT22;37879;52.986;6.282;2024-01-16T06:26:42;-0.20;99.90
51825;DHT22;37879;52.986;6.282;2024-01-16T06:29:08;-0.20;99.90
51825;DHT22;37879;52.986;6.282;2024-01-16T06:31:34;-0.20;99.90
51825;DHT22;37879;52.986;6.282;2024-01-16T06:33:59;-0.20;99.90
51825;DHT22;37879;52.986;6.282;2024-01-16T06:36:25;0.30;99.90
51825;DHT22;37879;52.986;6.282;2024-01-16T06:38:51;0.80;99.90
51825;DHT22;37879;52.986;6.282;2024-01-16T06:41:17;0.60;99.90
51825;DHT22;37879;52.986;6.282;2024-01-16T06:43:43;-0.30;99.90
51825;DHT22;37879;52.986;6.282;2024-01-16T06:46:08;-0.30;99.90
51825;DHT22;37879;52.986;6.282;2024-01-16T06:48:37;0.40;99.90
51825;DHT22;37879;52.986;6.282;2024-01-16T06:51:04;-0.30;99.90
51825;DHT22;37879;52.986;6.282;2024-01-16T06:53:30;-0.20;99.90
51825;DHT22;37879;52.986;6.282;2024-01-16T06:55:56;-0.20;99.90
51825;DHT22;37879;52.986;6.282;2024-01-16T06:58:21;0.60;99.90
51825;DHT22;37879;52.986;6.282;2024-01-16T07:00:47;-0.20;99.90
51825;DHT22;37879;52.986;6.282;2024-01-16T07:03:13;-0.20;99.90
51825;DHT22;37879;52.986;6.282;2024-01-16T07:05:40;-0.10;99.90
51825;DHT22;37879;52.986;6.282;2024-01-16T07:08:07;-0.30;99.90
51825;DHT22;37879;52.986;6.282;2024-01-16T07:10:33;-0.30;99.90
51825;DHT22;37879;52.986;6.282;2024-01-16T07:12:59;0.10;99.90
51825;DHT22;37879;52.986;6.282;2024-01-16T07:15:25;-0.20;99.90
51825;DHT22;37879;52.986;6.282;2024-01-16T07:17:51;-0.20;99.90
51825;DHT22;37879;52.986;6.282;2024-01-16T07:20:17;-0.20;99.90
51825;DHT22;37879;52.986;6.282;2024-01-16T07:22:43;-0.20;99.90
51825;DHT22;37879;52.986;6.282;2024-01-16T07:25:09;-0.10;99.90
51825;DHT22;37879;52.986;6.282;2024-01-16T07:27:35;-0.10;99.90
51825;DHT22;37879;52.986;6.282;2024-01-16T07:30:03;-0.10;99.90
51825;DHT22;37879;52.986;6.282;2024-01-16T07:32:29;0.30;99.90
51825;DHT22;37879;52.986;6.282;2024-01-16T07:34:55;-0.10;99.90
51825;DHT22;37879;52.986;6.282;2024-01-16T07:37:21;-0.10;99.90
51825;DHT22;37879;52.986;6.282;2024-01-16T07:39:46;-0.10;99.90
51825;DHT22;37879;52.986;6.282;2024-01-16T07:42:12;-0.20;99.90
51825;DHT22;37879;52.986;6.282;2024-01-16T07:44:38;-0.10;99.90
51825;DHT22;37879;52.986;6.282;2024-01-16T07:47:04;0.30;99.90
51825;DHT22;37879;52.986;6.282;2024-01-16T07:49:30;-0.20;99.90
51825;DHT22;37879;52.986;6.282;2024-01-16T07:51:56;-0.20;99.90
51825;DHT22;37879;52.986;6.282;2024-01-16T07:54:21;-0.20;99.90
51825;DHT22;37879;52.986;6.282;2024-01-16T07:56:48;-0.20;99.90
51825;DHT22;37879;52.986;6.282;2024-01-16T07:59:13;0.30;99.90
51825;DHT22;37879;52.986;6.282;2024-01-16T08:01:39;-0.30;99.90
51825;DHT22;37879;52.986;6.282;2024-01-16T08:04:05;-0.20;99.90
51825;DHT22;37879;52.986;6.282;2024-01-16T08:06:31;0.20;99.90
51825;DHT22;37879;52.986;6.282;2024-01-16T08:08:57;-0.20;99.90
51825;DHT22;37879;52.986;6.282;2024-01-16T08:11:23;-0.20;99.90
51825;DHT22;37879;52.986;6.282;2024-01-16T08:13:49;-0.10;99.90
51825;DHT22;37879;52.986;6.282;2024-01-16T08:16:14;-0.10;99.90
51825;DHT22;37879;52.986;6.282;2024-01-16T08:18:40;-1.00;99.90
51825;DHT22;37879;52.986;6.282;2024-01-16T08:21:06;0.00;99.90
51825;DHT22;37879;52.986;6.282;2024-01-16T08:23:33;0.00;99.90
51825;DHT22;37879;52.986;6.282;2024-01-16T08:25:59;0.20;99.90
51825;DHT22;37879;52.986;6.282;2024-01-16T08:28:26;0.10;99.90
51825;DHT22;37879;52.986;6.282;2024-01-16T08:30:52;0.80;99.90
51825;DHT22;37879;52.986;6.282;2024-01-16T08:33:18;0.20;99.90
51825;DHT22;37879;52.986;6.282;2024-01-16T08:35:44;0.30;99.90
51825;DHT22;37879;52.986;6.282;2024-01-16T08:38:10;0.80;99.90
51825;DHT22;37879;52.986;6.282;2024-01-16T08:40:36;0.30;99.90
51825;DHT22;37879;52.986;6.282;2024-01-16T08:43:02;0.30;99.90
51825;DHT22;37879;52.986;6.282;2024-01-16T08:45:29;0.30;99.90
51825;DHT22;37879;52.986;6.282;2024-01-16T08:47:55;0.40;99.90
51825;DHT22;37879;52.986;6.282;2024-01-16T08:50:20;0.40;99.90
51825;DHT22;37879;52.986;6.282;2024-01-16T08:52:46;0.40;99.90
51825;DHT22;37879;52.986;6.282;2024-01-16T08:55:12;1.00;99.90
51825;DHT22;37879;52.986;6.282;2024-01-16T08:57:38;0.40;99.90
51825;DHT22;37879;52.986;6.282;2024-01-16T09:00:05;0.40;99.90
51825;DHT22;37879;52.986;6.282;2024-01-16T09:02:31;0.50;99.90
51825;DHT22;37879;52.986;6.282;2024-01-16T09:04:57;0.60;99.90
51825;DHT22;37879;52.986;6.282;2024-01-16T09:07:24;1.90;99.90
51825;DHT22;37879;52.986;6.282;2024-01-16T09:09:50;0.60;99.90
51825;DHT22;37879;52.986;6.282;2024-01-16T09:12:16;0.70;99.90
51825;DHT22;37879;52.986;6.282;2024-01-16T09:14:41;0.80;99.90
51825;DHT22;37879;52.986;6.282;2024-01-16T09:17:07;0.70;99.90
51825;DHT22;37879;52.986;6.282;2024-01-16T09:19:33;0.80;99.90
51825;DHT22;37879;52.986;6.282;2024-01-16T09:21:59;0.80;99.90
51825;DHT22;37879;52.986;6.282;2024-01-16T09:24:24;0.90;99.90
51825;DHT22;37879;52.986;6.282;2024-01-16T09:26:50;0.90;99.90
51825;DHT22;37879;52.986;6.282;2024-01-16T09:29:16;0.90;99.90
51825;DHT22;37879;52.986;6.282;2024-01-16T09:31:42;0.90;99.90
51825;DHT22;37879;52.986;6.282;2024-01-16T09:34:08;0.80;99.90
51825;DHT22;37879;52.986;6.282;2024-01-16T09:36:34;1.00;99.90
51825;DHT22;37879;52.986;6.282;2024-01-16T09:39:04;0.70;99.90
51825;DHT22;37879;52.986;6.282;2024-01-16T09:41:34;1.90;99.90
51825;DHT22;37879;52.986;6.282;2024-01-16T09:43:59;1.40;99.90
51825;DHT22;37879;52.986;6.282;2024-01-16T09:46:26;0.90;99.90
51825;DHT22;37879;52.986;6.282;2024-01-16T09:48:56;0.90;99.90
51825;DHT22;37879;52.986;6.282;2024-01-16T09:51:22;1.10;99.90
51825;DHT22;37879;52.986;6.282;2024-01-16T09:53:48;1.00;99.90
51825;DHT22;37879;52.986;6.282;2024-01-16T09:56:15;1.20;99.90
51825;DHT22;37879;52.986;6.282;2024-01-16T09:58:43;1.10;99.90
51825;DHT22;37879;52.986;6.282;2024-01-16T10:01:09;1.20;99.90
51825;DHT22;37879;52.986;6.282;2024-01-16T10:03:35;1.30;99.90
51825;DHT22;37879;52.986;6.282;2024-01-16T10:06:05;1.30;99.90
51825;DHT22;37879;52.986;6.282;2024-01-16T10:08:32;1.30;99.90
51825;DHT22;37879;52.986;6.282;2024-01-16T10:10:58;1.40;99.90
51825;DHT22;37879;52.986;6.282;2024-01-16T10:13:24;1.50;99.90
51825;DHT22;37879;52.986;6.282;2024-01-16T10:15:50;1.50;99.90
51825;DHT22;37879;52.986;6.282;2024-01-16T10:18:26;1.60;99.90
51825;DHT22;37879;52.986;6.282;2024-01-16T10:20:52;1.70;99.90
51825;DHT22;37879;52.986;6.282;2024-01-16T10:23:29;1.70;99.90
51825;DHT22;37879;52.986;6.282;2024-01-16T10:26:10;1.70;99.90
51825;DHT22;37879;52.986;6.282;2024-01-16T10:28:38;1.70;99.90
51825;DHT22;37879;52.986;6.282;2024-01-16T10:31:05;2.70;99.90
51825;DHT22;37879;52.986;6.282;2024-01-16T10:33:32;1.70;99.90
51825;DHT22;37879;52.986;6.282;2024-01-16T10:36:14;2.50;99.90
51825;DHT22;37879;52.986;6.282;2024-01-16T10:38:45;1.60;99.90
51825;DHT22;37879;52.986;6.282;2024-01-16T10:41:15;1.50;99.90
51825;DHT22;37879;52.986;6.282;2024-01-16T10:43:42;1.50;99.90
51825;DHT22;37879;52.986;6.282;2024-01-16T10:46:18;1.40;99.90
51825;DHT22;37879;52.986;6.282;2024-01-16T10:49:02;1.90;99.90
51825;DHT22;37879;52.986;6.282;2024-01-16T10:51:29;1.30;99.90
51825;DHT22;37879;52.986;6.282;2024-01-16T10:54:00;1.40;99.90
51825;DHT22;37879;52.986;6.282;2024-01-16T10:56:29;1.20;99.90
51825;DHT22;37879;52.986;6.282;2024-01-16T11:01:26;1.60;99.90
51825;DHT22;37879;52.986;6.282;2024-01-16T11:03:53;1.00;99.90
51825;DHT22;37879;52.986;6.282;2024-01-16T11:06:22;1.00;99.90
51825;DHT22;37879;52.986;6.282;2024-01-16T11:08:49;1.00;99.90
51825;DHT22;37879;52.986;6.282;2024-01-16T11:11:15;0.90;99.90
51825;DHT22;37879;52.986;6.282;2024-01-16T11:13:41;0.90;99.90
51825;DHT22;37879;52.986;6.282;2024-01-16T11:16:13;0.90;99.90
51825;DHT22;37879;52.986;6.282;2024-01-16T11:18:39;0.90;99.90
51825;DHT22;37879;52.986;6.282;2024-01-16T11:21:07;1.00;99.90
51825;DHT22;37879;52.986;6.282;2024-01-16T11:23:34;1.00;99.90
51825;DHT22;37879;52.986;6.282;2024-01-16T11:26:27;1.10;99.90
51825;DHT22;37879;52.986;6.282;2024-01-16T11:28:54;1.10;99.90
51825;DHT22;37879;52.986;6.282;2024-01-16T11:31:32;1.10;99.90
51825;DHT22;37879;52.986;6.282;2024-01-16T11:33:59;1.10;99.90
51825;DHT22;37879;52.986;6.282;2024-01-16T11:36:52;1.10;99.90
51825;DHT22;37879;52.986;6.282;2024-01-16T11:39:23;1.10;99.90
51825;DHT22;37879;52.986;6.282;2024-01-16T11:41:54;1.10;99.90
51825;DHT22;37879;52.986;6.282;2024-01-16T11:44:48;1.20;99.90
51825;DHT22;37879;52.986;6.282;2024-01-16T11:47:21;0.90;99.90
51825;DHT22;37879;52.986;6.282;2024-01-16T11:49:48;1.00;99.90
51825;DHT22;37879;52.986;6.282;2024-01-16T11:52:14;1.00;99.90
51825;DHT22;37879;52.986;6.282;2024-01-16T11:54:41;1.10;99.90
51825;DHT22;37879;52.986;6.282;2024-01-16T12:00:04;1.10;99.90
51825;DHT22;37879;52.986;6.282;2024-01-16T12:02:52;1.10;99.90
51825;DHT22;37879;52.986;6.282;2024-01-16T12:05:18;1.50;99.90
51825;DHT22;37879;52.986;6.282;2024-01-16T12:07:46;1.20;99.90
51825;DHT22;37879;52.986;6.282;2024-01-16T12:10:15;1.20;99.90
51825;DHT22;37879;52.986;6.282;2024-01-16T12:12:41;1.20;99.90
51825;DHT22;37879;52.986;6.282;2024-01-16T12:15:16;1.20;99.90
51825;DHT22;37879;52.986;6.282;2024-01-16T12:18:01;1.50;99.90
51825;DHT22;37879;52.986;6.282;2024-01-16T12:20:34;1.10;99.90
51825;DHT22;37879;52.986;6.282;2024-01-16T12:23:01;1.80;99.90
51825;DHT22;37879;52.986;6.282;2024-01-16T12:25:29;1.00;99.90
51825;DHT22;37879;52.986;6.282;2024-01-16T12:27:59;1.00;99.90
51825;DHT22;37879;52.986;6.282;2024-01-16T12:30:35;-1.00;99.90
51825;DHT22;37879;52.986;6.282;2024-01-16T12:33:12;1.00;99.90
51825;DHT22;37879;52.986;6.282;2024-01-16T12:38:06;1.10;99.90
51825;DHT22;37879;52.986;6.282;2024-01-16T12:40:32;1.10;99.90
51825;DHT22;37879;52.986;6.282;2024-01-16T12:42:59;1.10;99.90
51825;DHT22;37879;52.986;6.282;2024-01-16T12:45:25;1.10;99.90
51825;DHT22;37879;52.986;6.282;2024-01-16T12:47:54;1.10;99.90
51825;DHT22;37879;52.986;6.282;2024-01-16T12:50:25;1.10;99.90
51825;DHT22;37879;52.986;6.282;2024-01-16T12:53:07;1.10;99.90
51825;DHT22;37879;52.986;6.282;2024-01-16T12:55:39;1.10;99.90
51825;DHT22;37879;52.986;6.282;2024-01-16T12:58:18;1.00;99.90
51825;DHT22;37879;52.986;6.282;2024-01-16T13:00:46;1.00;99.90
51825;DHT22;37879;52.986;6.282;2024-01-16T13:03:20;1.00;99.90
51825;DHT22;37879;52.986;6.282;2024-01-16T13:05:55;1.00;99.90
51825;DHT22;37879;52.986;6.282;2024-01-16T13:08:21;1.60;99.90
51825;DHT22;37879;52.986;6.282;2024-01-16T13:11:08;1.00;99.90
51825;DHT22;37879;52.986;6.282;2024-01-16T13:13:35;1.00;99.90
51825;DHT22;37879;52.986;6.282;2024-01-16T13:16:02;1.70;99.90
51825;DHT22;37879;52.986;6.282;2024-01-16T13:18:29;1.20;99.90
51825;DHT22;37879;52.986;6.282;2024-01-16T13:20:59;1.20;99.90
51825;DHT22;37879;52.986;6.282;2024-01-16T13:23:26;1.30;99.90
51825;DHT22;37879;52.986;6.282;2024-01-16T13:25:52;1.40;99.90
51825;DHT22;37879;52.986;6.282;2024-01-16T13:28:19;1.50;99.90
51825;DHT22;37879;52.986;6.282;2024-01-16T13:30:47;1.50;99.90
51825;DHT22;37879;52.986;6.282;2024-01-16T13:33:14;1.50;99.90
51825;DHT22;37879;52.986;6.282;2024-01-16T13:35:44;1.50;99.90
51825;DHT22;37879;52.986;6.282;2024-01-16T13:38:11;1.60;99.90
51825;DHT22;37879;52.986;6.282;2024-01-16T13:40:37;1.60;99.90
51825;DHT22;37879;52.986;6.282;2024-01-16T13:43:06;1.60;99.90
51825;DHT22;37879;52.986;6.282;2024-01-16T13:45:35;1.70;99.90
51825;DHT22;37879;52.986;6.282;2024-01-16T13:48:01;1.70;99.90
51825;DHT22;37879;52.986;6.282;2024-01-16T13:50:27;1.70;99.90
51825;DHT22;37879;52.986;6.282;2024-01-16T13:52:53;1.80;99.90
51825;DHT22;37879;52.986;6.282;2024-01-16T13:55:20;1.80;99.90
51825;DHT22;37879;52.986;6.282;2024-01-16T13:57:46;1.90;99.90
51825;DHT22;37879;52.986;6.282;2024-01-16T14:00:14;1.90;99.90
51825;DHT22;37879;52.986;6.282;2024-01-16T14:02:47;2.00;99.90
51825;DHT22;37879;52.986;6.282;2024-01-16T14:05:15;2.00;99.90
51825;DHT22;37879;52.986;6.282;2024-01-16T14:07:45;2.00;99.90
51825;DHT22;37879;52.986;6.282;2024-01-16T14:10:20;2.00;99.90
51825;DHT22;37879;52.986;6.282;2024-01-16T14:12:48;2.00;99.90
51825;DHT22;37879;52.986;6.282;2024-01-16T14:15:16;2.00;99.90
51825;DHT22;37879;52.986;6.282;2024-01-16T14:17:47;2.00;99.90
51825;DHT22;37879;52.986;6.282;2024-01-16T14:20:13;2.00;99.90
51825;DHT22;37879;52.986;6.282;2024-01-16T14:22:39;2.00;99.90
51825;DHT22;37879;52.986;6.282;2024-01-16T14:25:10;2.10;99.90
51825;DHT22;37879;52.986;6.282;2024-01-16T14:27:44;2.10;99.90
51825;DHT22;37879;52.986;6.282;2024-01-16T14:30:13;2.10;99.90
51825;DHT22;37879;52.986;6.282;2024-01-16T14:32:45;2.10;99.90
51825;DHT22;37879;52.986;6.282;2024-01-16T14:35:13;2.00;99.90
51825;DHT22;37879;52.986;6.282;2024-01-16T14:37:40;1.90;99.90
51825;DHT22;37879;52.986;6.282;2024-01-16T14:40:09;1.90;99.90
51825;DHT22;37879;52.986;6.282;2024-01-16T14:42:54;1.80;99.90
51825;DHT22;37879;52.986;6.282;2024-01-16T14:45:25;1.80;99.90
51825;DHT22;37879;52.986;6.282;2024-01-16T14:47:53;1.60;99.90
51825;DHT22;37879;52.986;6.282;2024-01-16T14:50:22;1.70;99.90
51825;DHT22;37879;52.986;6.282;2024-01-16T14:52:50;2.10;99.90
51825;DHT22;37879;52.986;6.282;2024-01-16T14:55:16;1.40;99.90
51825;DHT22;37879;52.986;6.282;2024-01-16T14:57:42;1.60;99.90
51825;DHT22;37879;52.986;6.282;2024-01-16T15:00:11;1.30;99.90
51825;DHT22;37879;52.986;6.282;2024-01-16T15:02:54;1.20;99.90
51825;DHT22;37879;52.986;6.282;2024-01-16T15:05:21;1.20;99.90
51825;DHT22;37879;52.986;6.282;2024-01-16T15:07:47;1.10;99.90
51825;DHT22;37879;52.986;6.282;2024-01-16T15:10:13;1.10;99.90
51825;DHT22;37879;52.986;6.282;2024-01-16T15:12:43;1.50;99.90
51825;DHT22;37879;52.986;6.282;2024-01-16T15:15:14;1.10;99.90
51825;DHT22;37879;52.986;6.282;2024-01-16T15:17:43;1.00;99.90
51825;DHT22;37879;52.986;6.282;2024-01-16T15:20:10;0.90;99.90
51825;DHT22;37879;52.986;6.282;2024-01-16T15:22:40;0.90;99.90
51825;DHT22;37879;52.986;6.282;2024-01-16T15:25:06;0.80;99.90
51825;DHT22;37879;52.986;6.282;2024-01-16T15:27:33;0.80;99.90
51825;DHT22;37879;52.986;6.282;2024-01-16T15:29:59;0.70;99.90
51825;DHT22;37879;52.986;6.282;2024-01-16T15:32:25;0.70;99.90
51825;DHT22;37879;52.986;6.282;2024-01-16T15:34:51;0.70;99.90
51825;DHT22;37879;52.986;6.282;2024-01-16T15:37:16;0.60;99.90
51825;DHT22;37879;52.986;6.282;2024-01-16T15:39:42;1.70;99.90
51825;DHT22;37879;52.986;6.282;2024-01-16T15:42:08;0.60;99.90
51825;DHT22;37879;52.986;6.282;2024-01-16T15:44:34;0.60;99.90
51825;DHT22;37879;52.986;6.282;2024-01-16T15:47:02;0.60;99.90
51825;DHT22;37879;52.986;6.282;2024-01-16T15:49:29;0.60;99.90
51825;DHT22;37879;52.986;6.282;2024-01-16T15:51:56;0.60;99.90
51825;DHT22;37879;52.986;6.282;2024-01-16T15:54:24;0.50;99.90
51825;DHT22;37879;52.986;6.282;2024-01-16T15:56:50;0.50;99.90